createdAt,value
2019-03-18T00:00:20.195Z,21.30
2019-03-18T00:02:46.930Z,21.30
2019-03-18T00:05:14.275Z,21.30
2019-03-18T00:07:41.038Z,21.30
2019-03-18T00:10:07.936Z,21.30
2019-03-18T00:12:34.678Z,21.30
2019-03-18T00:15:02.290Z,21.30
2019-03-18T00:17:29.269Z,21.30
2019-03-18T00:19:56.029Z,21.30
2019-03-18T00:22:23.207Z,21.30
2019-03-18T00:24:49.948Z,21.30
2019-03-18T00:27:16.694Z,21.30
2019-03-18T00:29:43.486Z,21.30
2019-03-18T00:32:10.227Z,21.30
2019-03-18T00:34:36.960Z,21.30
2019-03-18T00:37:03.713Z,21.30
2019-03-18T00:39:30.804Z,21.30
2019-03-18T00:41:57.537Z,21.30
2019-03-18T00:44:24.310Z,21.30
2019-03-18T00:46:51.177Z,21.30
2019-03-18T00:49:18.516Z,21.30
2019-03-18T00:51:45.402Z,21.30
2019-03-18T00:54:12.264Z,21.30
2019-03-18T00:56:39.419Z,21.30
2019-03-18T00:59:06.154Z,21.30
2019-03-18T01:01:32.916Z,21.30
2019-03-18T01:04:00.056Z,21.30
2019-03-18T01:06:26.824Z,21.30
2019-03-18T01:08:53.818Z,21.30
2019-03-18T01:11:20.569Z,21.30
2019-03-18T01:13:47.774Z,21.30
2019-03-18T01:16:14.563Z,21.30
2019-03-18T01:18:41.551Z,21.30
2019-03-18T01:21:08.741Z,21.30
2019-03-18T01:23:35.824Z,21.30
2019-03-18T01:26:03.045Z,21.30
2019-03-18T01:28:29.784Z,21.30
2019-03-18T01:30:56.572Z,21.30
2019-03-18T01:33:23.308Z,21.30
2019-03-18T01:35:50.408Z,21.30
2019-03-18T01:38:17.145Z,21.30
2019-03-18T01:40:44.048Z,21.30
2019-03-18T01:43:10.830Z,21.30
2019-03-18T01:45:41.011Z,21.30
2019-03-18T01:48:06.203Z,21.30
2019-03-18T01:50:33.018Z,21.30
2019-03-18T01:52:59.749Z,21.30
2019-03-18T01:55:26.531Z,21.30
2019-03-18T01:57:53.562Z,21.30
2019-03-18T02:00:20.299Z,21.30
2019-03-18T02:02:47.466Z,21.30
2019-03-18T02:05:14.196Z,21.30
2019-03-18T02:07:41.043Z,21.30
2019-03-18T02:10:15.750Z,21.30
2019-03-18T02:12:42.473Z,21.30
2019-03-18T02:15:13.973Z,21.30
2019-03-18T02:17:40.720Z,21.30
2019-03-18T02:20:10.529Z,21.30
2019-03-18T02:22:37.287Z,21.30
2019-03-18T02:25:07.022Z,21.40
2019-03-18T02:27:34.137Z,21.40
2019-03-18T02:30:01.058Z,21.40
2019-03-18T02:32:27.907Z,21.50
2019-03-18T02:34:54.775Z,21.60
2019-03-18T02:37:21.629Z,21.60
2019-03-18T02:39:48.698Z,21.60
2019-03-18T02:42:15.515Z,21.70
2019-03-18T02:44:42.249Z,21.70
2019-03-18T02:47:09.448Z,21.80
2019-03-18T02:49:36.211Z,21.90
2019-03-18T02:52:03.110Z,21.90
2019-03-18T02:54:30.061Z,22.00
2019-03-18T02:56:56.836Z,22.00
2019-03-18T02:59:23.575Z,22.00
2019-03-18T03:01:50.393Z,22.00
2019-03-18T03:04:17.545Z,22.10
2019-03-18T03:06:44.366Z,22.10
2019-03-18T03:09:11.192Z,22.20
2019-03-18T03:11:37.995Z,22.20
2019-03-18T03:14:05.742Z,22.20
2019-03-18T03:16:32.448Z,22.20
2019-03-18T03:18:59.224Z,22.20
2019-03-18T03:21:25.988Z,22.30
2019-03-18T03:23:53.506Z,22.30
2019-03-18T03:26:20.270Z,22.30
2019-03-18T03:28:47.028Z,22.30
2019-03-18T03:31:13.761Z,22.40
2019-03-18T03:33:41.047Z,22.40
2019-03-18T03:36:07.858Z,22.40
2019-03-18T03:38:34.677Z,22.40
2019-03-18T03:41:01.416Z,22.40
2019-03-18T03:43:28.291Z,22.40
2019-03-18T03:45:55.115Z,22.40
2019-03-18T03:48:21.879Z,22.50
2019-03-18T03:50:48.942Z,22.50
2019-03-18T03:53:15.811Z,22.50
2019-03-18T03:55:42.685Z,22.50
2019-03-18T03:58:09.473Z,22.50
2019-03-18T04:00:36.262Z,22.50
2019-03-18T04:03:03.382Z,22.50
2019-03-18T04:05:30.270Z,22.60
2019-03-18T04:07:56.982Z,22.60
2019-03-18T04:10:24.057Z,22.50
2019-03-18T04:12:50.826Z,22.60
2019-03-18T04:15:17.705Z,22.60
2019-03-18T04:17:44.488Z,22.60
2019-03-18T04:20:16.345Z,22.60
2019-03-18T04:22:43.389Z,22.60
2019-03-18T04:25:10.141Z,22.60
2019-03-18T04:27:36.870Z,22.60
2019-03-18T04:30:07.698Z,22.60
2019-03-18T04:32:34.464Z,22.60
2019-03-18T04:35:01.179Z,22.60
2019-03-18T04:37:27.892Z,22.60
2019-03-18T04:39:55.038Z,22.60
2019-03-18T04:42:21.826Z,22.60
2019-03-18T04:44:49.148Z,22.60
2019-03-18T04:47:16.293Z,22.60
2019-03-18T04:49:43.655Z,22.60
2019-03-18T04:52:10.833Z,22.60
2019-03-18T04:54:37.603Z,22.60
2019-03-18T04:57:04.395Z,22.60
2019-03-18T04:59:31.249Z,22.60
2019-03-18T05:01:58.360Z,22.70
2019-03-18T05:04:25.515Z,22.70
2019-03-18T05:06:52.276Z,22.60
2019-03-18T05:09:19.133Z,22.70
2019-03-18T05:11:46.363Z,22.70
2019-03-18T05:14:13.145Z,22.70
2019-03-18T05:16:40.005Z,22.70
2019-03-18T05:19:06.861Z,22.70
2019-03-18T05:21:34.124Z,22.70
2019-03-18T05:24:01.297Z,22.70
2019-03-18T05:26:28.057Z,22.70
2019-03-18T05:28:54.844Z,22.70
2019-03-18T05:31:21.595Z,22.80
2019-03-18T05:33:48.607Z,22.80
2019-03-18T05:36:15.439Z,22.80
2019-03-18T05:38:42.338Z,22.80
2019-03-18T05:41:09.053Z,22.80
2019-03-18T05:43:35.912Z,22.80
2019-03-18T05:46:02.758Z,22.80
2019-03-18T05:48:29.889Z,22.80
2019-03-18T05:50:56.734Z,22.90
2019-03-18T05:53:23.725Z,22.90
2019-03-18T05:55:50.457Z,22.90
2019-03-18T05:58:17.202Z,22.90
2019-03-18T06:00:44.384Z,22.90
2019-03-18T06:03:11.196Z,22.90
2019-03-18T06:05:39.739Z,22.90
2019-03-18T06:08:06.735Z,22.90
2019-03-18T06:10:33.571Z,22.90
2019-03-18T06:13:00.584Z,22.90
2019-03-18T06:15:27.363Z,22.90
2019-03-18T06:17:54.259Z,22.90
2019-03-18T06:20:21.379Z,23.00
2019-03-18T06:22:48.157Z,22.90
2019-03-18T06:25:14.948Z,23.00
2019-03-18T06:27:41.728Z,22.90
2019-03-18T06:30:12.014Z,22.90
2019-03-18T06:32:38.773Z,23.00
2019-03-18T06:35:08.516Z,23.00
2019-03-18T06:37:35.239Z,23.00
2019-03-18T06:40:05.548Z,22.90
2019-03-18T06:42:32.278Z,22.90
2019-03-18T06:44:59.031Z,22.90
2019-03-18T06:47:25.944Z,22.90
2019-03-18T06:49:53.314Z,22.90
2019-03-18T06:52:20.376Z,22.90
2019-03-18T06:54:47.133Z,22.90
2019-03-18T06:57:13.887Z,22.90
2019-03-18T06:59:40.647Z,22.90
2019-03-18T07:02:08.050Z,22.90
2019-03-18T07:04:34.836Z,22.90
2019-03-18T07:07:02.047Z,22.90
2019-03-18T07:09:29.230Z,22.90
2019-03-18T07:11:56.033Z,23.00
2019-03-18T07:14:22.798Z,23.00
2019-03-18T07:16:49.916Z,23.00
2019-03-18T07:19:16.756Z,23.00
2019-03-18T07:21:43.946Z,23.00
2019-03-18T07:24:10.712Z,23.00
2019-03-18T07:26:37.670Z,23.00
2019-03-18T07:29:04.447Z,23.00
2019-03-18T07:31:31.368Z,23.00
2019-03-18T07:33:59.936Z,23.00
2019-03-18T07:36:26.920Z,23.00
2019-03-18T07:38:53.989Z,23.00
2019-03-18T07:41:20.873Z,23.00
2019-03-18T07:43:47.743Z,23.00
2019-03-18T07:46:15.226Z,23.00
2019-03-18T07:48:42.208Z,23.00
2019-03-18T07:51:09.438Z,23.00
2019-03-18T07:53:37.174Z,23.00
2019-03-18T07:56:04.557Z,23.10
2019-03-18T07:58:31.323Z,23.00
2019-03-18T08:00:58.203Z,23.10
2019-03-18T08:03:25.365Z,23.10
2019-03-18T08:05:52.569Z,23.10
2019-03-18T08:08:19.405Z,23.20
2019-03-18T08:10:46.299Z,23.20
2019-03-18T08:13:13.436Z,23.30
2019-03-18T08:15:40.170Z,23.30
2019-03-18T08:18:07.057Z,23.30
2019-03-18T08:20:34.159Z,23.30
2019-03-18T08:23:00.938Z,23.40
2019-03-18T08:25:27.662Z,23.30
2019-03-18T08:27:54.676Z,23.30
2019-03-18T08:30:21.437Z,23.30
2019-03-18T08:32:48.660Z,23.30
2019-03-18T08:35:17.991Z,23.30
2019-03-18T08:37:44.755Z,23.30
2019-03-18T08:40:11.651Z,23.20
2019-03-18T08:42:41.057Z,23.20
2019-03-18T08:45:11.079Z,23.20
2019-03-18T08:47:37.926Z,23.20
2019-03-18T08:50:07.728Z,23.30
2019-03-18T08:52:34.484Z,23.30
2019-03-18T08:55:01.375Z,23.50
2019-03-18T08:57:28.128Z,23.50
2019-03-18T08:59:55.581Z,23.50
2019-03-18T09:02:22.522Z,23.50
2019-03-18T09:04:49.349Z,23.40
2019-03-18T09:07:16.154Z,23.40
2019-03-18T09:09:42.900Z,23.50
2019-03-18T09:12:09.631Z,23.50
2019-03-18T09:14:36.472Z,23.50
2019-03-18T09:17:04.150Z,23.60
2019-03-18T09:19:31.424Z,23.70
2019-03-18T09:21:58.203Z,23.60
2019-03-18T09:24:25.088Z,23.60
2019-03-18T09:27:01.785Z,23.60
2019-03-18T09:29:20.505Z,23.60
2019-03-18T09:31:47.267Z,23.60
2019-03-18T09:34:14.037Z,23.60
2019-03-18T09:36:40.864Z,23.60
2019-03-18T09:39:08.159Z,23.60
2019-03-18T09:41:35.235Z,23.60
2019-03-18T09:44:02.161Z,23.60
2019-03-18T09:46:28.918Z,23.60
2019-03-18T09:48:56.330Z,23.60
2019-03-18T09:51:23.125Z,23.60
2019-03-18T09:53:49.898Z,23.60
2019-03-18T09:56:16.648Z,23.60
2019-03-18T09:58:43.416Z,23.60
2019-03-18T10:01:10.269Z,23.60
2019-03-18T10:03:37.164Z,23.60
2019-03-18T10:06:03.896Z,23.70
2019-03-18T10:08:30.636Z,23.70
2019-03-18T10:10:57.430Z,23.60
2019-03-18T10:13:24.173Z,23.70
2019-03-18T10:15:59.926Z,23.60
2019-03-18T10:18:31.995Z,23.60
2019-03-18T10:21:07.081Z,23.70
2019-03-18T10:23:42.319Z,23.70
2019-03-18T10:26:11.089Z,23.70
2019-03-18T10:28:37.994Z,23.70
2019-03-18T10:31:04.829Z,23.70
2019-03-18T10:33:31.639Z,23.80
2019-03-18T10:35:58.482Z,23.80
2019-03-18T10:38:25.440Z,23.80
2019-03-18T10:40:52.241Z,23.80
2019-03-18T10:43:20.348Z,23.90
2019-03-18T10:45:47.230Z,23.90
2019-03-18T10:48:13.989Z,23.80
2019-03-18T10:50:40.854Z,23.80
2019-03-18T10:53:08.008Z,23.80
2019-03-18T10:55:35.183Z,23.80
2019-03-18T10:58:01.926Z,23.70
2019-03-18T11:00:28.797Z,23.80
2019-03-18T11:02:55.898Z,23.80
2019-03-18T11:05:22.622Z,23.80
2019-03-18T11:07:51.811Z,23.80
2019-03-18T11:10:18.602Z,23.80
2019-03-18T11:12:45.662Z,23.80
2019-03-18T11:15:18.779Z,23.90
2019-03-18T11:17:45.578Z,23.80
2019-03-18T11:20:15.101Z,23.80
2019-03-18T11:22:42.408Z,23.80
2019-03-18T11:25:11.554Z,23.80
2019-03-18T11:27:38.747Z,23.80
2019-03-18T11:30:17.411Z,23.90
2019-03-18T11:32:44.162Z,23.90
2019-03-18T11:35:11.891Z,23.90
2019-03-18T11:37:38.654Z,23.90
2019-03-18T11:40:16.181Z,23.90
2019-03-18T11:42:43.050Z,23.90
2019-03-18T11:45:14.595Z,24.00
2019-03-18T11:47:41.461Z,23.90
2019-03-18T11:50:16.227Z,23.90
2019-03-18T11:52:42.967Z,23.90
2019-03-18T11:55:13.869Z,23.90
2019-03-18T11:57:40.719Z,23.90
2019-03-18T12:00:18.252Z,23.90
2019-03-18T12:02:45.317Z,23.90
2019-03-18T12:05:15.574Z,23.90
2019-03-18T12:07:42.423Z,24.00
2019-03-18T12:10:15.978Z,23.90
2019-03-18T12:12:42.824Z,23.90
2019-03-18T12:15:16.256Z,23.90
2019-03-18T12:17:43.003Z,23.90
2019-03-18T12:20:23.614Z,23.90
2019-03-18T12:22:42.841Z,23.90
2019-03-18T12:25:11.178Z,23.90
2019-03-18T12:27:37.983Z,23.80
2019-03-18T12:30:17.490Z,23.80
2019-03-18T12:32:44.468Z,23.80
2019-03-18T12:35:11.246Z,23.80
2019-03-18T12:37:38.052Z,23.90
2019-03-18T12:40:09.280Z,24.00
2019-03-18T12:42:36.018Z,24.00
2019-03-18T12:45:08.787Z,24.00
2019-03-18T12:47:36.037Z,24.10
2019-03-18T12:50:10.840Z,24.00
2019-03-18T12:52:38.055Z,24.00
2019-03-18T12:55:05.039Z,24.00
2019-03-18T12:57:32.136Z,24.00
2019-03-18T12:59:59.852Z,24.00
2019-03-18T13:02:26.965Z,24.00
2019-03-18T13:04:53.827Z,23.90
2019-03-18T13:07:20.542Z,23.90
2019-03-18T13:09:49.304Z,23.90
2019-03-18T13:12:16.399Z,23.90
2019-03-18T13:14:43.199Z,23.90
2019-03-18T13:17:09.935Z,23.80
2019-03-18T13:19:36.767Z,23.80
2019-03-18T13:22:03.835Z,23.70
2019-03-18T13:24:30.576Z,23.70
2019-03-18T13:26:58.689Z,23.80
2019-03-18T13:29:25.917Z,23.70
2019-03-18T13:31:52.786Z,23.70
2019-03-18T13:34:19.523Z,23.70
2019-03-18T13:36:46.658Z,23.60
2019-03-18T13:39:13.392Z,23.70
2019-03-18T13:41:40.195Z,23.70
2019-03-18T13:44:07.441Z,23.80
2019-03-18T13:46:34.261Z,23.80
2019-03-18T13:49:00.996Z,23.80
2019-03-18T13:51:29.342Z,23.90
2019-03-18T13:53:56.324Z,23.90
2019-03-18T13:56:23.186Z,23.80
2019-03-18T13:58:50.236Z,23.80
2019-03-18T14:01:17.417Z,23.80
2019-03-18T14:03:44.177Z,23.80
2019-03-18T14:06:11.158Z,23.90
2019-03-18T14:08:38.726Z,23.90
2019-03-18T14:11:05.512Z,23.90
2019-03-18T14:13:32.278Z,23.90
2019-03-18T14:15:59.368Z,23.80
2019-03-18T14:18:26.408Z,23.90
2019-03-18T14:20:53.288Z,23.80
2019-03-18T14:23:20.018Z,23.80
2019-03-18T14:25:47.542Z,23.80
2019-03-18T14:28:16.783Z,23.80
2019-03-18T14:30:44.128Z,23.90
2019-03-18T14:33:10.957Z,23.90
2019-03-18T14:35:37.716Z,23.90
2019-03-18T14:38:05.139Z,23.90
2019-03-18T14:40:32.412Z,23.90
2019-03-18T14:42:59.618Z,24.00
2019-03-18T14:45:26.501Z,24.00
2019-03-18T14:47:53.229Z,24.00
2019-03-18T14:50:20.362Z,24.00
2019-03-18T14:52:47.139Z,24.00
2019-03-18T14:55:17.960Z,24.00
2019-03-18T14:57:44.727Z,24.00
2019-03-18T15:00:18.160Z,24.00
2019-03-18T15:02:45.128Z,23.90
2019-03-18T15:05:13.871Z,23.90
2019-03-18T15:07:40.636Z,24.00
2019-03-18T15:10:11.073Z,24.00
2019-03-18T15:12:37.923Z,24.00
2019-03-18T15:15:09.474Z,24.00
2019-03-18T15:17:36.422Z,24.00
2019-03-18T15:20:07.375Z,23.90
2019-03-18T15:22:34.134Z,23.90
2019-03-18T15:25:00.862Z,23.80
2019-03-18T15:27:27.634Z,23.70
2019-03-18T15:29:54.745Z,23.70
2019-03-18T15:32:21.504Z,23.70
2019-03-18T15:34:48.237Z,23.70
2019-03-18T15:37:15.109Z,23.70
2019-03-18T15:39:41.888Z,23.70
2019-03-18T15:42:08.628Z,23.70
2019-03-18T15:44:35.747Z,23.70
2019-03-18T15:47:02.682Z,23.70
2019-03-18T15:49:29.537Z,23.70
2019-03-18T15:51:56.677Z,23.70
2019-03-18T15:54:23.406Z,23.70
2019-03-18T15:56:50.583Z,23.70
2019-03-18T15:59:18.504Z,23.70
2019-03-18T16:01:45.700Z,23.70
2019-03-18T16:04:12.444Z,23.80
2019-03-18T16:06:39.160Z,23.80
2019-03-18T16:09:06.191Z,23.70
2019-03-18T16:11:35.522Z,23.70
2019-03-18T16:14:02.644Z,23.70
2019-03-18T16:16:29.407Z,23.70
2019-03-18T16:18:56.160Z,23.70
2019-03-18T16:21:22.944Z,23.70
2019-03-18T16:23:50.024Z,23.70
2019-03-18T16:26:17.465Z,23.70
2019-03-18T16:28:44.227Z,23.60
2019-03-18T16:31:10.996Z,23.60
2019-03-18T16:33:37.715Z,23.60
2019-03-18T16:36:04.442Z,23.60
2019-03-18T16:38:31.240Z,23.60
2019-03-18T16:40:58.068Z,23.60
2019-03-18T16:43:25.003Z,23.50
2019-03-18T16:45:51.905Z,23.60
2019-03-18T16:48:18.913Z,23.50
2019-03-18T16:50:45.695Z,23.50
2019-03-18T16:53:12.546Z,23.50
2019-03-18T16:55:39.504Z,23.50
2019-03-18T16:58:06.354Z,23.50
2019-03-18T17:00:33.449Z,23.50
2019-03-18T17:03:00.716Z,23.50
2019-03-18T17:05:27.449Z,23.50
2019-03-18T17:07:54.751Z,23.50
2019-03-18T17:10:22.025Z,23.50
2019-03-18T17:12:56.312Z,23.50
2019-03-18T17:15:23.499Z,23.50
2019-03-18T17:17:50.259Z,23.50
2019-03-18T17:20:17.033Z,23.50
2019-03-18T17:22:49.302Z,23.50
2019-03-18T17:25:22.761Z,23.60
2019-03-18T17:27:49.517Z,23.60
2019-03-18T17:30:17.970Z,23.60
2019-03-18T17:32:45.368Z,23.60
2019-03-18T17:35:12.438Z,23.50
2019-03-18T17:37:39.541Z,23.40
2019-03-18T17:40:10.782Z,23.30
2019-03-18T17:42:37.518Z,23.30
2019-03-18T17:45:08.767Z,23.30
2019-03-18T17:47:35.732Z,23.20
2019-03-18T17:50:10.324Z,23.10
2019-03-18T17:52:37.056Z,23.10
2019-03-18T17:55:03.782Z,23.10
2019-03-18T17:57:30.633Z,23.00
2019-03-18T17:59:57.411Z,23.00
2019-03-18T18:02:26.385Z,23.00
2019-03-18T18:05:02.787Z,22.90
2019-03-18T18:07:28.516Z,22.90
2019-03-18T18:09:56.753Z,22.80
2019-03-18T18:12:23.622Z,22.70
2019-03-18T18:14:52.747Z,22.70
2019-03-18T18:17:20.934Z,22.70
2019-03-18T18:19:47.796Z,22.60
2019-03-18T18:22:14.690Z,22.60
2019-03-18T18:24:41.437Z,22.50
2019-03-18T18:27:08.612Z,22.50
2019-03-18T18:29:35.474Z,22.50
2019-03-18T18:32:02.693Z,22.50
2019-03-18T18:34:29.441Z,22.40
2019-03-18T18:36:56.511Z,22.40
2019-03-18T18:39:23.378Z,22.40
2019-03-18T18:41:50.217Z,22.40
2019-03-18T18:44:17.150Z,22.40
2019-03-18T18:46:43.944Z,22.40
2019-03-18T18:49:10.773Z,22.30
2019-03-18T18:51:37.506Z,22.30
2019-03-18T18:54:04.274Z,22.30
2019-03-18T18:56:31.375Z,22.30
2019-03-18T18:58:58.939Z,22.30
2019-03-18T19:01:25.755Z,22.30
2019-03-18T19:03:52.660Z,22.30
2019-03-18T19:06:19.463Z,22.30
2019-03-18T19:08:46.178Z,22.30
2019-03-18T19:11:12.917Z,22.20
2019-03-18T19:13:39.716Z,22.20
2019-03-18T19:16:07.090Z,22.20
2019-03-18T19:18:38.117Z,22.20
2019-03-18T19:21:03.050Z,22.20
2019-03-18T19:23:37.509Z,22.20
2019-03-18T19:25:58.618Z,22.20
2019-03-18T19:28:25.364Z,22.20
2019-03-18T19:30:52.620Z,22.10
2019-03-18T19:33:20.100Z,22.10
2019-03-18T19:35:47.010Z,22.10
2019-03-18T19:38:14.510Z,22.10
2019-03-18T19:40:41.789Z,22.10
2019-03-18T19:43:09.482Z,22.10
2019-03-18T19:45:36.358Z,22.00
2019-03-18T19:48:03.141Z,22.00
2019-03-18T19:50:32.300Z,22.00
2019-03-18T19:52:59.104Z,22.00
2019-03-18T19:55:25.899Z,22.00
2019-03-18T19:57:53.012Z,22.00
2019-03-18T20:00:30.291Z,22.00
2019-03-18T20:02:58.460Z,22.00
2019-03-18T20:05:25.199Z,22.00
2019-03-18T20:07:51.966Z,22.00
2019-03-18T20:10:20.228Z,21.90
2019-03-18T20:12:46.951Z,22.00
2019-03-18T20:15:15.473Z,21.90
2019-03-18T20:17:42.326Z,21.90
2019-03-18T20:20:14.706Z,21.90
2019-03-18T20:22:41.416Z,21.90
2019-03-18T20:25:13.367Z,21.90
2019-03-18T20:27:40.095Z,21.90
2019-03-18T20:30:18.414Z,21.80
2019-03-18T20:32:45.136Z,21.80
2019-03-18T20:35:19.512Z,21.80
2019-03-18T20:37:46.751Z,21.80
2019-03-18T20:40:14.706Z,21.80
2019-03-18T20:42:41.596Z,21.80
2019-03-18T20:45:13.215Z,21.80
2019-03-18T20:47:39.924Z,21.80
2019-03-18T20:50:17.438Z,21.80
2019-03-18T20:52:44.205Z,21.80
2019-03-18T20:55:12.171Z,21.70
2019-03-18T20:57:39.058Z,21.70
2019-03-18T21:00:23.354Z,21.70
2019-03-18T21:02:50.120Z,21.70
2019-03-18T21:05:17.176Z,21.80
2019-03-18T21:07:44.769Z,21.70
2019-03-18T21:10:16.620Z,21.70
2019-03-18T21:12:43.488Z,21.70
2019-03-18T21:15:14.661Z,21.70
2019-03-18T21:17:41.972Z,21.70
2019-03-18T21:20:21.865Z,21.70
2019-03-18T21:22:48.948Z,21.70
2019-03-18T21:25:16.038Z,21.70
2019-03-18T21:27:43.173Z,21.70
2019-03-18T21:30:18.468Z,21.70
2019-03-18T21:32:45.257Z,21.70
2019-03-18T21:35:12.013Z,21.70
2019-03-18T21:37:38.860Z,21.70
2019-03-18T21:40:11.321Z,21.60
2019-03-18T21:42:38.441Z,21.60
2019-03-18T21:45:10.216Z,21.70
2019-03-18T21:47:37.100Z,21.70
2019-03-18T21:50:06.443Z,21.60
2019-03-18T21:52:33.274Z,21.60
2019-03-18T21:55:01.986Z,21.60
2019-03-18T21:57:29.101Z,21.60
2019-03-18T21:59:57.559Z,21.60
2019-03-18T22:02:24.561Z,21.60
2019-03-18T22:04:51.688Z,21.60
2019-03-18T22:07:18.493Z,21.60
2019-03-18T22:09:45.611Z,21.60
2019-03-18T22:12:12.361Z,21.60
2019-03-18T22:14:39.270Z,21.60
2019-03-18T22:17:06.088Z,21.60
2019-03-18T22:19:32.864Z,21.60
2019-03-18T22:21:59.627Z,21.60
2019-03-18T22:24:26.348Z,21.60
2019-03-18T22:26:53.106Z,21.60
2019-03-18T22:29:19.833Z,21.60
2019-03-18T22:31:46.825Z,21.60
2019-03-18T22:34:13.553Z,21.60
2019-03-18T22:36:40.305Z,21.60
2019-03-18T22:39:07.892Z,21.60
2019-03-18T22:41:35.283Z,21.60
2019-03-18T22:44:02.398Z,21.60
2019-03-18T22:46:29.531Z,21.60
2019-03-18T22:48:56.431Z,21.60
2019-03-18T22:51:23.192Z,21.60
2019-03-18T22:53:50.312Z,21.60
2019-03-18T22:56:17.591Z,21.60
2019-03-18T22:58:44.835Z,21.60
2019-03-18T23:01:13.458Z,21.60
2019-03-18T23:03:40.804Z,21.60
2019-03-18T23:06:07.783Z,21.60
2019-03-18T23:08:34.908Z,21.60
2019-03-18T23:11:01.711Z,21.60
2019-03-18T23:13:28.853Z,21.60
2019-03-18T23:15:55.987Z,21.60
2019-03-18T23:18:22.788Z,21.60
2019-03-18T23:20:49.565Z,21.50
2019-03-18T23:23:16.312Z,21.60
2019-03-18T23:25:43.070Z,21.50
2019-03-18T23:28:09.816Z,21.50
2019-03-18T23:30:36.661Z,21.60
2019-03-18T23:33:03.859Z,21.50
2019-03-18T23:35:30.595Z,21.50
2019-03-18T23:37:57.408Z,21.50
2019-03-18T23:40:24.465Z,21.50
2019-03-18T23:42:51.429Z,21.50
2019-03-18T23:45:18.191Z,21.50
2019-03-18T23:47:46.816Z,21.60
2019-03-18T23:50:15.008Z,21.50
2019-03-18T23:52:41.759Z,21.50
2019-03-18T23:55:18.156Z,21.50
2019-03-18T23:57:37.951Z,21.50
